createdAt,value
2022-11-22T00:09:06.081Z,98.31
2022-11-22T00:38:58.081Z,98.71
2022-11-22T01:08:41.337Z,97.93
2022-11-22T01:23:32.701Z,98.05
2022-11-22T01:38:23.241Z,97.55
2022-11-22T01:53:14.953Z,96.81
2022-11-22T02:08:15.818Z,95.98
2022-11-22T02:23:11.461Z,94.84
2022-11-22T02:38:08.727Z,94.74
2022-11-22T02:53:03.316Z,93.65
2022-11-22T03:07:54.354Z,92.28
2022-11-22T03:22:45.732Z,92.09
2022-11-22T03:37:36.432Z,90.29
2022-11-22T03:52:26.551Z,90.25
2022-11-22T04:07:17.193Z,91.34
2022-11-22T04:22:08.240Z,90.07
2022-11-22T04:36:59.295Z,88.83
2022-11-22T04:52:08.100Z,89.19
2022-11-22T05:07:04.460Z,89.08
2022-11-22T05:21:54.884Z,89.10
2022-11-22T05:36:45.725Z,89.57
2022-11-22T05:51:36.520Z,91.78
2022-11-22T06:06:27.452Z,89.84
2022-11-22T06:21:18.969Z,86.02
2022-11-22T06:36:10.031Z,85.44
2022-11-22T06:51:05.985Z,86.07
2022-11-22T07:05:52.576Z,87.75
2022-11-22T07:20:43.563Z,89.36
2022-11-22T07:35:34.466Z,90.33
2022-11-22T07:50:25.440Z,90.89
2022-11-22T08:05:15.591Z,90.66
2022-11-22T08:20:07.056Z,89.76
2022-11-22T08:34:59.305Z,88.08
2022-11-22T08:49:50.000Z,86.01
2022-11-22T09:04:40.351Z,84.41
2022-11-22T09:19:31.843Z,83.00
2022-11-22T09:34:22.900Z,81.81
2022-11-22T09:49:30.082Z,81.06
2022-11-22T10:04:26.064Z,78.47
2022-11-22T10:19:17.238Z,76.39
2022-11-22T10:34:29.508Z,74.43
2022-11-22T10:49:50.009Z,74.00
2022-11-22T11:04:47.589Z,73.12
2022-11-22T11:19:39.605Z,70.96
2022-11-22T11:34:31.409Z,67.66
2022-11-22T11:49:22.852Z,65.49
2022-11-22T12:04:14.378Z,62.76
2022-11-22T12:19:11.063Z,62.35
2022-11-22T12:34:14.374Z,62.65
2022-11-22T12:49:22.353Z,61.37
2022-11-22T13:04:19.847Z,62.37
2022-11-22T13:19:13.074Z,63.54
2022-11-22T13:34:03.558Z,63.61
2022-11-22T14:03:45.852Z,64.29
2022-11-22T14:34:22.825Z,66.24
2022-11-22T14:49:28.139Z,68.11
2022-11-22T15:09:18.218Z,73.45
2022-11-22T16:04:30.789Z,82.59
2022-11-22T16:19:26.438Z,86.72
2022-11-22T16:34:17.015Z,89.05
2022-11-22T16:49:19.591Z,89.35
2022-11-22T17:34:23.044Z,85.94
2022-11-22T17:49:15.974Z,83.18
2022-11-22T18:04:04.977Z,83.70
2022-11-22T18:18:58.114Z,83.98
2022-11-22T18:33:46.739Z,83.86
2022-11-22T18:48:36.843Z,83.95
2022-11-22T19:18:44.467Z,84.06
2022-11-22T19:33:38.044Z,83.73
2022-11-22T19:48:28.919Z,83.38
2022-11-22T20:03:18.671Z,83.24
2022-11-22T20:18:09.301Z,82.13
2022-11-22T20:32:59.325Z,81.83
2022-11-22T20:47:50.228Z,81.66
2022-11-22T21:02:41.138Z,81.10
2022-11-22T21:32:48.663Z,80.03
2022-11-22T21:47:39.868Z,80.14
2022-11-22T22:02:30.130Z,79.24
2022-11-22T22:17:20.105Z,78.98
2022-11-22T22:32:10.953Z,79.09
2022-11-22T22:47:00.715Z,79.36
2022-11-22T23:01:52.517Z,79.59
2022-11-22T23:16:41.707Z,80.30
2022-11-22T23:31:31.799Z,81.53
2022-11-22T23:46:22.014Z,81.66
